sensor_id;sensor_type;location;lat;lon;timestamp;temperature;humidity
43607;DHT22;29197;44.788;10.366;2022-08-02T00:00:14;29.50;89.10
43607;DHT22;29197;44.788;10.366;2022-08-02T00:03:03;29.50;89.30
43607;DHT22;29197;44.788;10.366;2022-08-02T00:05:53;29.60;89.10
43607;DHT22;29197;44.788;10.366;2022-08-02T00:08:43;29.50;88.80
43607;DHT22;29197;44.788;10.366;2022-08-02T00:11:32;29.60;89.20
43607;DHT22;29197;44.788;10.366;2022-08-02T00:14:21;29.60;89.90
43607;DHT22;29197;44.788;10.366;2022-08-02T00:17:10;29.60;89.90
43607;DHT22;29197;44.788;10.366;2022-08-02T00:19:59;29.70;89.30
43607;DHT22;29197;44.788;10.366;2022-08-02T00:22:49;29.70;87.90
43607;DHT22;29197;44.788;10.366;2022-08-02T00:25:38;29.60;88.00
43607;DHT22;29197;44.788;10.366;2022-08-02T00:28:42;29.50;88.20
43607;DHT22;29197;44.788;10.366;2022-08-02T00:31:31;29.40;88.20
43607;DHT22;29197;44.788;10.366;2022-08-02T00:34:20;29.40;88.20
43607;DHT22;29197;44.788;10.366;2022-08-02T00:37:16;29.40;88.10
43607;DHT22;29197;44.788;10.366;2022-08-02T00:40:08;29.40;88.10
43607;DHT22;29197;44.788;10.366;2022-08-02T00:43:02;29.40;88.40
43607;DHT22;29197;44.788;10.366;2022-08-02T00:46:07;29.50;89.80
43607;DHT22;29197;44.788;10.366;2022-08-02T00:48:57;29.40;91.20
43607;DHT22;29197;44.788;10.366;2022-08-02T00:51:47;29.30;91.70
43607;DHT22;29197;44.788;10.366;2022-08-02T00:54:35;29.20;91.80
43607;DHT22;29197;44.788;10.366;2022-08-02T00:57:26;29.20;91.80
43607;DHT22;29197;44.788;10.366;2022-08-02T01:00:16;29.20;91.90
43607;DHT22;29197;44.788;10.366;2022-08-02T01:03:06;29.10;91.90
43607;DHT22;29197;44.788;10.366;2022-08-02T01:05:55;29.10;91.60
43607;DHT22;29197;44.788;10.366;2022-08-02T01:08:57;29.10;91.60
43607;DHT22;29197;44.788;10.366;2022-08-02T01:11:46;29.10;91.80
43607;DHT22;29197;44.788;10.366;2022-08-02T01:14:37;29.10;92.50
43607;DHT22;29197;44.788;10.366;2022-08-02T01:17:33;29.10;93.10
43607;DHT22;29197;44.788;10.366;2022-08-02T01:20:43;29.00;93.60
43607;DHT22;29197;44.788;10.366;2022-08-02T01:23:52;29.00;94.10
43607;DHT22;29197;44.788;10.366;2022-08-02T01:26:49;28.90;94.40
43607;DHT22;29197;44.788;10.366;2022-08-02T01:29:43;29.00;94.70
43607;DHT22;29197;44.788;10.366;2022-08-02T01:32:43;29.00;94.90
43607;DHT22;29197;44.788;10.366;2022-08-02T01:35:39;28.90;95.00
43607;DHT22;29197;44.788;10.366;2022-08-02T01:38:40;28.90;95.30
43607;DHT22;29197;44.788;10.366;2022-08-02T01:41:33;28.80;95.40
43607;DHT22;29197;44.788;10.366;2022-08-02T01:44:24;28.80;95.60
43607;DHT22;29197;44.788;10.366;2022-08-02T01:47:18;28.80;95.70
43607;DHT22;29197;44.788;10.366;2022-08-02T01:50:13;28.70;95.90
43607;DHT22;29197;44.788;10.366;2022-08-02T01:53:06;28.60;96.10
43607;DHT22;29197;44.788;10.366;2022-08-02T01:55:58;28.60;96.40
43607;DHT22;29197;44.788;10.366;2022-08-02T01:58:48;28.60;96.50
43607;DHT22;29197;44.788;10.366;2022-08-02T02:01:39;28.60;96.60
43607;DHT22;29197;44.788;10.366;2022-08-02T02:04:31;28.50;96.80
43607;DHT22;29197;44.788;10.366;2022-08-02T02:07:23;28.50;96.90
43607;DHT22;29197;44.788;10.366;2022-08-02T02:10:14;28.50;97.10
43607;DHT22;29197;44.788;10.366;2022-08-02T02:35:50;28.00;97.70
43607;DHT22;29197;44.788;10.366;2022-08-02T02:38:42;28.00;98.30
43607;DHT22;29197;44.788;10.366;2022-08-02T02:41:33;27.80;98.60
43607;DHT22;29197;44.788;10.366;2022-08-02T02:44:22;27.80;98.80
43607;DHT22;29197;44.788;10.366;2022-08-02T02:47:13;27.80;99.00
43607;DHT22;29197;44.788;10.366;2022-08-02T02:50:04;27.80;99.00
43607;DHT22;29197;44.788;10.366;2022-08-02T02:52:54;27.80;99.10
43607;DHT22;29197;44.788;10.366;2022-08-02T02:55:45;27.90;99.00
43607;DHT22;29197;44.788;10.366;2022-08-02T02:58:49;27.90;99.00
43607;DHT22;29197;44.788;10.366;2022-08-02T03:01:41;28.00;99.10
43607;DHT22;29197;44.788;10.366;2022-08-02T03:04:44;28.10;99.00
43607;DHT22;29197;44.788;10.366;2022-08-02T03:07:44;28.10;98.90
43607;DHT22;29197;44.788;10.366;2022-08-02T03:10:33;28.20;98.80
43607;DHT22;29197;44.788;10.366;2022-08-02T03:13:24;28.20;98.80
43607;DHT22;29197;44.788;10.366;2022-08-02T03:16:22;28.20;99.20
43607;DHT22;29197;44.788;10.366;2022-08-02T03:19:11;28.20;98.90
43607;DHT22;29197;44.788;10.366;2022-08-02T03:22:01;28.00;99.10
43607;DHT22;29197;44.788;10.366;2022-08-02T03:24:50;27.90;99.20
43607;DHT22;29197;44.788;10.366;2022-08-02T03:27:39;27.90;99.30
43607;DHT22;29197;44.788;10.366;2022-08-02T03:30:29;27.80;99.40
43607;DHT22;29197;44.788;10.366;2022-08-02T03:33:19;27.80;99.40
43607;DHT22;29197;44.788;10.366;2022-08-02T03:36:12;27.80;99.40
43607;DHT22;29197;44.788;10.366;2022-08-02T03:39:03;27.90;99.50
43607;DHT22;29197;44.788;10.366;2022-08-02T04:15:26;28.10;99.90
43607;DHT22;29197;44.788;10.366;2022-08-02T04:18:15;28.00;99.90
43607;DHT22;29197;44.788;10.366;2022-08-02T04:21:06;28.00;99.90
43607;DHT22;29197;44.788;10.366;2022-08-02T04:23:57;27.90;99.90
43607;DHT22;29197;44.788;10.366;2022-08-02T04:26:47;27.90;99.90
43607;DHT22;29197;44.788;10.366;2022-08-02T04:29:38;27.90;99.90
43607;DHT22;29197;44.788;10.366;2022-08-02T04:32:34;27.80;99.90
43607;DHT22;29197;44.788;10.366;2022-08-02T04:35:24;27.70;99.90
43607;DHT22;29197;44.788;10.366;2022-08-02T04:38:13;27.70;99.90
43607;DHT22;29197;44.788;10.366;2022-08-02T04:41:03;27.60;99.90
43607;DHT22;29197;44.788;10.366;2022-08-02T04:43:52;27.60;99.90
43607;DHT22;29197;44.788;10.366;2022-08-02T04:46:43;27.50;99.90
43607;DHT22;29197;44.788;10.366;2022-08-02T04:49:34;27.50;99.90
43607;DHT22;29197;44.788;10.366;2022-08-02T04:52:24;27.50;99.90
43607;DHT22;29197;44.788;10.366;2022-08-02T04:55:13;27.40;99.90
43607;DHT22;29197;44.788;10.366;2022-08-02T04:58:02;27.30;99.90
43607;DHT22;29197;44.788;10.366;2022-08-02T05:01:12;27.20;99.90
43607;DHT22;29197;44.788;10.366;2022-08-02T05:04:02;27.30;99.90
43607;DHT22;29197;44.788;10.366;2022-08-02T05:06:52;27.30;99.90
43607;DHT22;29197;44.788;10.366;2022-08-02T05:09:42;27.50;99.90
43607;DHT22;29197;44.788;10.366;2022-08-02T05:12:31;27.60;99.90
43607;DHT22;29197;44.788;10.366;2022-08-02T05:15:20;27.60;99.90
43607;DHT22;29197;44.788;10.366;2022-08-02T05:18:09;27.50;99.90
43607;DHT22;29197;44.788;10.366;2022-08-02T05:20:59;27.60;99.90
43607;DHT22;29197;44.788;10.366;2022-08-02T05:23:50;27.60;99.90
43607;DHT22;29197;44.788;10.366;2022-08-02T05:26:39;27.50;99.90
43607;DHT22;29197;44.788;10.366;2022-08-02T05:29:29;27.50;99.90
43607;DHT22;29197;44.788;10.366;2022-08-02T05:32:18;27.50;99.90
43607;DHT22;29197;44.788;10.366;2022-08-02T05:35:11;27.60;99.90
43607;DHT22;29197;44.788;10.366;2022-08-02T05:38:00;27.60;99.90
43607;DHT22;29197;44.788;10.366;2022-08-02T05:40:51;27.50;99.90
43607;DHT22;29197;44.788;10.366;2022-08-02T05:43:41;27.50;99.90
43607;DHT22;29197;44.788;10.366;2022-08-02T05:46:30;27.50;99.90
43607;DHT22;29197;44.788;10.366;2022-08-02T05:49:19;27.40;99.90
43607;DHT22;29197;44.788;10.366;2022-08-02T05:52:14;27.40;99.90
43607;DHT22;29197;44.788;10.366;2022-08-02T05:55:06;27.50;99.90
43607;DHT22;29197;44.788;10.366;2022-08-02T05:58:02;27.50;99.90
43607;DHT22;29197;44.788;10.366;2022-08-02T06:00:55;27.50;99.90
43607;DHT22;29197;44.788;10.366;2022-08-02T06:03:49;27.60;99.90
43607;DHT22;29197;44.788;10.366;2022-08-02T06:06:43;27.50;99.90
43607;DHT22;29197;44.788;10.366;2022-08-02T06:09:32;27.50;99.90
43607;DHT22;29197;44.788;10.366;2022-08-02T06:12:24;27.50;99.90
43607;DHT22;29197;44.788;10.366;2022-08-02T06:15:18;27.50;99.90
43607;DHT22;29197;44.788;10.366;2022-08-02T06:18:08;27.30;99.90
43607;DHT22;29197;44.788;10.366;2022-08-02T06:21:01;27.30;99.90
43607;DHT22;29197;44.788;10.366;2022-08-02T06:24:12;27.40;99.90
43607;DHT22;29197;44.788;10.366;2022-08-02T06:27:26;27.40;99.90
43607;DHT22;29197;44.788;10.366;2022-08-02T06:30:15;27.30;99.90
43607;DHT22;29197;44.788;10.366;2022-08-02T06:33:06;27.30;99.90
43607;DHT22;29197;44.788;10.366;2022-08-02T06:38:55;27.10;99.90
43607;DHT22;29197;44.788;10.366;2022-08-02T06:41:48;27.00;99.90
43607;DHT22;29197;44.788;10.366;2022-08-02T06:44:38;26.90;99.90
43607;DHT22;29197;44.788;10.366;2022-08-02T06:47:42;27.00;99.90
43607;DHT22;29197;44.788;10.366;2022-08-02T06:50:33;27.00;99.90
43607;DHT22;29197;44.788;10.366;2022-08-02T06:53:24;26.90;99.90
43607;DHT22;29197;44.788;10.366;2022-08-02T06:56:14;26.80;99.90
43607;DHT22;29197;44.788;10.366;2022-08-02T06:59:03;26.90;99.90
43607;DHT22;29197;44.788;10.366;2022-08-02T07:01:53;26.90;99.90
43607;DHT22;29197;44.788;10.366;2022-08-02T07:04:46;27.00;99.90
43607;DHT22;29197;44.788;10.366;2022-08-02T07:07:37;27.10;99.90
43607;DHT22;29197;44.788;10.366;2022-08-02T07:10:26;27.10;99.90
43607;DHT22;29197;44.788;10.366;2022-08-02T07:13:15;27.10;99.90
43607;DHT22;29197;44.788;10.366;2022-08-02T07:16:04;27.30;99.90
43607;DHT22;29197;44.788;10.366;2022-08-02T07:18:54;27.30;99.90
43607;DHT22;29197;44.788;10.366;2022-08-02T07:21:44;27.30;99.90
43607;DHT22;29197;44.788;10.366;2022-08-02T07:24:47;27.30;99.90
43607;DHT22;29197;44.788;10.366;2022-08-02T07:27:37;27.30;99.90
43607;DHT22;29197;44.788;10.366;2022-08-02T07:30:27;27.40;99.90
43607;DHT22;29197;44.788;10.366;2022-08-02T07:33:18;27.50;99.90
43607;DHT22;29197;44.788;10.366;2022-08-02T07:36:26;27.70;99.90
43607;DHT22;29197;44.788;10.366;2022-08-02T07:39:16;27.70;99.90
43607;DHT22;29197;44.788;10.366;2022-08-02T07:42:06;27.60;99.90
43607;DHT22;29197;44.788;10.366;2022-08-02T07:44:55;27.60;99.90
43607;DHT22;29197;44.788;10.366;2022-08-02T07:47:45;27.60;99.90
43607;DHT22;29197;44.788;10.366;2022-08-02T07:50:35;27.60;99.90
43607;DHT22;29197;44.788;10.366;2022-08-02T07:53:24;27.70;99.90
43607;DHT22;29197;44.788;10.366;2022-08-02T07:56:34;27.70;99.90
43607;DHT22;29197;44.788;10.366;2022-08-02T07:59:25;27.80;99.90
43607;DHT22;29197;44.788;10.366;2022-08-02T08:02:15;27.90;99.90
43607;DHT22;29197;44.788;10.366;2022-08-02T08:05:04;27.90;99.90
43607;DHT22;29197;44.788;10.366;2022-08-02T08:08:07;27.90;99.90
43607;DHT22;29197;44.788;10.366;2022-08-02T08:11:03;27.90;99.90
43607;DHT22;29197;44.788;10.366;2022-08-02T08:13:53;28.00;99.90
43607;DHT22;29197;44.788;10.366;2022-08-02T08:16:44;28.00;99.90
43607;DHT22;29197;44.788;10.366;2022-08-02T08:19:33;28.10;99.90
43607;DHT22;29197;44.788;10.366;2022-08-02T08:22:38;28.30;99.90
43607;DHT22;29197;44.788;10.366;2022-08-02T08:25:27;28.30;99.90
43607;DHT22;29197;44.788;10.366;2022-08-02T08:28:39;28.30;99.90
43607;DHT22;29197;44.788;10.366;2022-08-02T08:31:38;28.30;99.90
43607;DHT22;29197;44.788;10.366;2022-08-02T08:34:29;28.20;99.90
43607;DHT22;29197;44.788;10.366;2022-08-02T08:37:19;28.10;99.90
43607;DHT22;29197;44.788;10.366;2022-08-02T08:40:09;28.10;99.90
43607;DHT22;29197;44.788;10.366;2022-08-02T08:42:59;28.00;99.90
43607;DHT22;29197;44.788;10.366;2022-08-02T08:45:48;28.10;99.90
43607;DHT22;29197;44.788;10.366;2022-08-02T08:49:09;28.00;99.90
43607;DHT22;29197;44.788;10.366;2022-08-02T08:52:03;28.10;99.90
43607;DHT22;29197;44.788;10.366;2022-08-02T08:54:57;28.20;99.90
43607;DHT22;29197;44.788;10.366;2022-08-02T08:57:46;28.20;99.90
43607;DHT22;29197;44.788;10.366;2022-08-02T09:00:35;28.30;99.50
43607;DHT22;29197;44.788;10.366;2022-08-02T09:03:25;28.30;99.60
43607;DHT22;29197;44.788;10.366;2022-08-02T09:06:20;28.40;99.30
43607;DHT22;29197;44.788;10.366;2022-08-02T09:09:11;28.50;98.90
43607;DHT22;29197;44.788;10.366;2022-08-02T09:12:12;28.50;98.40
43607;DHT22;29197;44.788;10.366;2022-08-02T09:15:03;28.50;98.60
43607;DHT22;29197;44.788;10.366;2022-08-02T09:17:53;28.50;98.60
43607;DHT22;29197;44.788;10.366;2022-08-02T09:20:52;28.50;99.10
43607;DHT22;29197;44.788;10.366;2022-08-02T09:23:45;28.60;98.40
43607;DHT22;29197;44.788;10.366;2022-08-02T09:26:36;28.70;98.80
43607;DHT22;29197;44.788;10.366;2022-08-02T09:29:25;28.90;98.70
43607;DHT22;29197;44.788;10.366;2022-08-02T09:32:15;29.00;98.50
43607;DHT22;29197;44.788;10.366;2022-08-02T09:35:06;29.10;97.60
43607;DHT22;29197;44.788;10.366;2022-08-02T09:38:07;29.10;97.70
43607;DHT22;29197;44.788;10.366;2022-08-02T09:40:58;29.00;97.20
43607;DHT22;29197;44.788;10.366;2022-08-02T09:43:49;29.00;97.30
43607;DHT22;29197;44.788;10.366;2022-08-02T09:46:52;29.00;97.50
43607;DHT22;29197;44.788;10.366;2022-08-02T09:49:45;29.10;97.50
43607;DHT22;29197;44.788;10.366;2022-08-02T09:52:42;29.10;97.50
43607;DHT22;29197;44.788;10.366;2022-08-02T09:55:32;29.40;96.60
43607;DHT22;29197;44.788;10.366;2022-08-02T09:58:21;29.40;96.90
43607;DHT22;29197;44.788;10.366;2022-08-02T10:01:12;29.30;97.50
43607;DHT22;29197;44.788;10.366;2022-08-02T10:04:04;29.40;97.30
43607;DHT22;29197;44.788;10.366;2022-08-02T10:06:54;29.50;97.10
43607;DHT22;29197;44.788;10.366;2022-08-02T10:09:46;29.50;97.00
43607;DHT22;29197;44.788;10.366;2022-08-02T10:12:35;29.70;96.60
43607;DHT22;29197;44.788;10.366;2022-08-02T10:15:25;29.70;96.60
43607;DHT22;29197;44.788;10.366;2022-08-02T10:18:15;29.90;96.50
43607;DHT22;29197;44.788;10.366;2022-08-02T10:21:26;30.00;96.40
43607;DHT22;29197;44.788;10.366;2022-08-02T10:24:21;30.10;95.50
43607;DHT22;29197;44.788;10.366;2022-08-02T10:27:14;30.10;96.10
43607;DHT22;29197;44.788;10.366;2022-08-02T10:30:04;30.20;96.00
43607;DHT22;29197;44.788;10.366;2022-08-02T10:32:55;30.20;96.00
43607;DHT22;29197;44.788;10.366;2022-08-02T10:35:51;30.20;95.60
43607;DHT22;29197;44.788;10.366;2022-08-02T10:38:54;30.20;95.50
43607;DHT22;29197;44.788;10.366;2022-08-02T10:41:47;30.30;95.90
43607;DHT22;29197;44.788;10.366;2022-08-02T10:44:36;30.50;95.60
43607;DHT22;29197;44.788;10.366;2022-08-02T10:47:28;30.70;95.70
43607;DHT22;29197;44.788;10.366;2022-08-02T10:50:18;30.90;95.10
43607;DHT22;29197;44.788;10.366;2022-08-02T10:53:27;31.10;94.80
43607;DHT22;29197;44.788;10.366;2022-08-02T10:56:44;31.20;94.60
43607;DHT22;29197;44.788;10.366;2022-08-02T10:59:35;31.30;93.70
43607;DHT22;29197;44.788;10.366;2022-08-02T11:02:40;31.30;93.80
43607;DHT22;29197;44.788;10.366;2022-08-02T11:05:31;31.40;93.20
43607;DHT22;29197;44.788;10.366;2022-08-02T11:08:32;31.50;93.50
43607;DHT22;29197;44.788;10.366;2022-08-02T11:11:21;31.60;93.70
43607;DHT22;29197;44.788;10.366;2022-08-02T11:14:31;31.80;93.70
43607;DHT22;29197;44.788;10.366;2022-08-02T11:17:23;31.90;93.50
43607;DHT22;29197;44.788;10.366;2022-08-02T11:20:25;32.00;93.20
43607;DHT22;29197;44.788;10.366;2022-08-02T11:23:34;32.10;91.60
43607;DHT22;29197;44.788;10.366;2022-08-02T11:26:44;32.20;91.60
43607;DHT22;29197;44.788;10.366;2022-08-02T11:29:35;32.30;91.80
43607;DHT22;29197;44.788;10.366;2022-08-02T11:32:26;32.40;91.10
43607;DHT22;29197;44.788;10.366;2022-08-02T11:35:17;32.40;98.60
43607;DHT22;29197;44.788;10.366;2022-08-02T11:38:16;32.50;98.90
43607;DHT22;29197;44.788;10.366;2022-08-02T11:41:07;32.50;98.40
43607;DHT22;29197;44.788;10.366;2022-08-02T11:43:56;32.50;92.10
43607;DHT22;29197;44.788;10.366;2022-08-02T11:46:53;32.60;90.30
43607;DHT22;29197;44.788;10.366;2022-08-02T11:49:42;32.70;97.30
43607;DHT22;29197;44.788;10.366;2022-08-02T11:52:32;32.80;91.90
43607;DHT22;29197;44.788;10.366;2022-08-02T11:55:26;32.90;89.80
43607;DHT22;29197;44.788;10.366;2022-08-02T11:58:17;32.90;89.40
43607;DHT22;29197;44.788;10.366;2022-08-02T12:01:06;33.10;88.80
43607;DHT22;29197;44.788;10.366;2022-08-02T12:03:55;33.10;88.90
43607;DHT22;29197;44.788;10.366;2022-08-02T12:06:54;33.10;90.00
43607;DHT22;29197;44.788;10.366;2022-08-02T12:09:44;33.30;90.10
43607;DHT22;29197;44.788;10.366;2022-08-02T12:15:36;33.60;89.80
43607;DHT22;29197;44.788;10.366;2022-08-02T12:18:28;33.70;90.00
43607;DHT22;29197;44.788;10.366;2022-08-02T12:21:34;33.70;90.00
43607;DHT22;29197;44.788;10.366;2022-08-02T12:24:27;33.80;89.70
43607;DHT22;29197;44.788;10.366;2022-08-02T12:27:37;33.90;88.60
43607;DHT22;29197;44.788;10.366;2022-08-02T12:30:27;33.80;88.40
43607;DHT22;29197;44.788;10.366;2022-08-02T12:33:18;33.90;88.60
43607;DHT22;29197;44.788;10.366;2022-08-02T12:36:14;34.00;88.70
43607;DHT22;29197;44.788;10.366;2022-08-02T12:39:11;34.10;88.00
43607;DHT22;29197;44.788;10.366;2022-08-02T12:42:00;34.20;87.80
43607;DHT22;29197;44.788;10.366;2022-08-02T12:44:50;34.30;86.70
43607;DHT22;29197;44.788;10.366;2022-08-02T12:47:44;34.40;87.20
43607;DHT22;29197;44.788;10.366;2022-08-02T12:50:37;34.60;86.20
43607;DHT22;29197;44.788;10.366;2022-08-02T12:56:28;34.70;84.70
43607;DHT22;29197;44.788;10.366;2022-08-02T12:59:33;34.70;85.40
43607;DHT22;29197;44.788;10.366;2022-08-02T13:02:25;34.70;85.20
43607;DHT22;29197;44.788;10.366;2022-08-02T13:05:15;34.80;85.10
43607;DHT22;29197;44.788;10.366;2022-08-02T13:08:06;34.80;85.00
43607;DHT22;29197;44.788;10.366;2022-08-02T13:10:55;34.80;84.70
43607;DHT22;29197;44.788;10.366;2022-08-02T13:13:44;34.90;85.10
43607;DHT22;29197;44.788;10.366;2022-08-02T13:16:34;34.90;85.00
43607;DHT22;29197;44.788;10.366;2022-08-02T13:19:22;35.00;84.80
43607;DHT22;29197;44.788;10.366;2022-08-02T13:22:17;35.00;85.40
43607;DHT22;29197;44.788;10.366;2022-08-02T13:25:09;35.10;84.70
43607;DHT22;29197;44.788;10.366;2022-08-02T13:27:59;35.10;84.90
43607;DHT22;29197;44.788;10.366;2022-08-02T13:31:00;35.20;84.50
43607;DHT22;29197;44.788;10.366;2022-08-02T13:34:09;34.90;84.50
43607;DHT22;29197;44.788;10.366;2022-08-02T13:36:59;34.90;84.80
43607;DHT22;29197;44.788;10.366;2022-08-02T13:39:48;35.00;85.30
43607;DHT22;29197;44.788;10.366;2022-08-02T13:43:00;35.10;85.20
43607;DHT22;29197;44.788;10.366;2022-08-02T13:45:49;35.20;84.00
43607;DHT22;29197;44.788;10.366;2022-08-02T13:48:39;35.10;83.30
43607;DHT22;29197;44.788;10.366;2022-08-02T13:51:28;34.90;83.40
43607;DHT22;29197;44.788;10.366;2022-08-02T13:54:23;35.00;83.70
43607;DHT22;29197;44.788;10.366;2022-08-02T13:57:12;35.10;83.70
43607;DHT22;29197;44.788;10.366;2022-08-02T14:00:04;35.10;83.40
43607;DHT22;29197;44.788;10.366;2022-08-02T14:02:53;35.20;83.20
43607;DHT22;29197;44.788;10.366;2022-08-02T14:05:42;35.40;83.00
43607;DHT22;29197;44.788;10.366;2022-08-02T14:08:35;35.40;82.30
43607;DHT22;29197;44.788;10.366;2022-08-02T14:11:25;35.40;83.50
43607;DHT22;29197;44.788;10.366;2022-08-02T14:14:14;35.50;83.10
43607;DHT22;29197;44.788;10.366;2022-08-02T14:17:05;35.40;82.00
43607;DHT22;29197;44.788;10.366;2022-08-02T14:19:54;35.20;82.60
43607;DHT22;29197;44.788;10.366;2022-08-02T14:22:43;35.00;83.00
43607;DHT22;29197;44.788;10.366;2022-08-02T14:25:32;34.90;83.00
43607;DHT22;29197;44.788;10.366;2022-08-02T14:28:21;34.80;83.40
43607;DHT22;29197;44.788;10.366;2022-08-02T14:31:13;34.90;83.40
43607;DHT22;29197;44.788;10.366;2022-08-02T14:34:04;35.00;83.50
43607;DHT22;29197;44.788;10.366;2022-08-02T14:36:54;35.10;83.20
43607;DHT22;29197;44.788;10.366;2022-08-02T14:39:44;35.20;83.30
43607;DHT22;29197;44.788;10.366;2022-08-02T14:42:47;35.20;83.00
43607;DHT22;29197;44.788;10.366;2022-08-02T14:45:36;35.40;83.00
43607;DHT22;29197;44.788;10.366;2022-08-02T14:48:27;35.40;82.60
43607;DHT22;29197;44.788;10.366;2022-08-02T14:51:17;35.40;82.30
43607;DHT22;29197;44.788;10.366;2022-08-02T14:54:07;35.40;82.10
43607;DHT22;29197;44.788;10.366;2022-08-02T14:56:59;35.30;82.00
43607;DHT22;29197;44.788;10.366;2022-08-02T14:59:48;35.30;82.20
43607;DHT22;29197;44.788;10.366;2022-08-02T15:02:38;35.30;82.20
43607;DHT22;29197;44.788;10.366;2022-08-02T15:05:27;35.30;82.20
43607;DHT22;29197;44.788;10.366;2022-08-02T15:08:19;35.20;82.30
43607;DHT22;29197;44.788;10.366;2022-08-02T15:11:08;35.20;82.10
43607;DHT22;29197;44.788;10.366;2022-08-02T15:13:58;35.20;82.10
43607;DHT22;29197;44.788;10.366;2022-08-02T15:16:48;35.20;81.90
43607;DHT22;29197;44.788;10.366;2022-08-02T15:19:45;35.10;82.30
43607;DHT22;29197;44.788;10.366;2022-08-02T15:22:45;35.10;82.20
43607;DHT22;29197;44.788;10.366;2022-08-02T15:25:37;35.00;82.30
43607;DHT22;29197;44.788;10.366;2022-08-02T15:28:28;34.90;82.50
43607;DHT22;29197;44.788;10.366;2022-08-02T15:31:18;34.90;82.10
43607;DHT22;29197;44.788;10.366;2022-08-02T15:34:19;34.90;82.70
43607;DHT22;29197;44.788;10.366;2022-08-02T15:37:09;34.80;83.00
43607;DHT22;29197;44.788;10.366;2022-08-02T15:39:58;34.80;82.90
43607;DHT22;29197;44.788;10.366;2022-08-02T15:42:48;34.80;82.20
43607;DHT22;29197;44.788;10.366;2022-08-02T15:45:39;34.70;82.90
43607;DHT22;29197;44.788;10.366;2022-08-02T15:48:28;34.70;83.40
43607;DHT22;29197;44.788;10.366;2022-08-02T15:51:18;34.60;82.60
43607;DHT22;29197;44.788;10.366;2022-08-02T15:54:07;34.60;83.40
43607;DHT22;29197;44.788;10.366;2022-08-02T15:56:57;34.40;82.80
43607;DHT22;29197;44.788;10.366;2022-08-02T15:59:48;34.40;83.20
43607;DHT22;29197;44.788;10.366;2022-08-02T16:02:39;34.40;83.60
43607;DHT22;29197;44.788;10.366;2022-08-02T16:05:28;34.30;83.40
43607;DHT22;29197;44.788;10.366;2022-08-02T16:08:18;34.20;83.70
43607;DHT22;29197;44.788;10.366;2022-08-02T16:13:58;34.10;82.30
43607;DHT22;29197;44.788;10.366;2022-08-02T16:16:49;34.00;83.20
43607;DHT22;29197;44.788;10.366;2022-08-02T16:19:38;33.90;82.80
43607;DHT22;29197;44.788;10.366;2022-08-02T16:22:36;33.90;83.30
43607;DHT22;29197;44.788;10.366;2022-08-02T16:25:26;33.90;83.50
43607;DHT22;29197;44.788;10.366;2022-08-02T16:28:15;33.80;84.00
43607;DHT22;29197;44.788;10.366;2022-08-02T16:31:04;33.70;84.20
43607;DHT22;29197;44.788;10.366;2022-08-02T16:33:59;33.70;84.00
43607;DHT22;29197;44.788;10.366;2022-08-02T16:36:49;33.70;84.00
43607;DHT22;29197;44.788;10.366;2022-08-02T16:39:39;33.70;83.90
43607;DHT22;29197;44.788;10.366;2022-08-02T16:42:28;33.60;83.90
43607;DHT22;29197;44.788;10.366;2022-08-02T16:45:19;33.50;84.10
43607;DHT22;29197;44.788;10.366;2022-08-02T16:48:09;33.50;84.20
43607;DHT22;29197;44.788;10.366;2022-08-02T16:51:00;33.50;84.60
43607;DHT22;29197;44.788;10.366;2022-08-02T16:53:50;33.40;85.00
43607;DHT22;29197;44.788;10.366;2022-08-02T16:56:47;33.40;85.30
43607;DHT22;29197;44.788;10.366;2022-08-02T16:59:36;33.30;85.70
43607;DHT22;29197;44.788;10.366;2022-08-02T17:02:30;33.40;85.90
43607;DHT22;29197;44.788;10.366;2022-08-02T17:05:23;33.20;86.50
43607;DHT22;29197;44.788;10.366;2022-08-02T17:08:26;33.20;86.50
43607;DHT22;29197;44.788;10.366;2022-08-02T17:11:18;33.10;86.30
43607;DHT22;29197;44.788;10.366;2022-08-02T17:14:10;33.00;86.20
43607;DHT22;29197;44.788;10.366;2022-08-02T17:16:59;33.00;86.20
43607;DHT22;29197;44.788;10.366;2022-08-02T17:19:48;32.90;86.30
43607;DHT22;29197;44.788;10.366;2022-08-02T17:22:39;32.90;86.30
43607;DHT22;29197;44.788;10.366;2022-08-02T17:25:32;32.80;86.10
43607;DHT22;29197;44.788;10.366;2022-08-02T17:28:28;32.80;86.30
43607;DHT22;29197;44.788;10.366;2022-08-02T17:31:32;32.70;86.70
43607;DHT22;29197;44.788;10.366;2022-08-02T17:34:41;32.70;86.30
43607;DHT22;29197;44.788;10.366;2022-08-02T17:37:46;32.60;87.20
43607;DHT22;29197;44.788;10.366;2022-08-02T17:40:48;32.60;87.00
43607;DHT22;29197;44.788;10.366;2022-08-02T17:43:37;32.50;87.40
43607;DHT22;29197;44.788;10.366;2022-08-02T17:46:27;32.50;87.80
43607;DHT22;29197;44.788;10.366;2022-08-02T17:49:17;32.40;88.00
43607;DHT22;29197;44.788;10.366;2022-08-02T17:52:09;32.40;88.10
43607;DHT22;29197;44.788;10.366;2022-08-02T17:55:18;32.30;88.30
43607;DHT22;29197;44.788;10.366;2022-08-02T17:58:09;32.30;88.50
43607;DHT22;29197;44.788;10.366;2022-08-02T18:00:59;32.20;88.70
43607;DHT22;29197;44.788;10.366;2022-08-02T18:03:48;32.10;88.90
43607;DHT22;29197;44.788;10.366;2022-08-02T18:06:45;32.10;89.10
43607;DHT22;29197;44.788;10.366;2022-08-02T18:09:34;32.00;89.30
43607;DHT22;29197;44.788;10.366;2022-08-02T18:12:30;32.10;89.20
43607;DHT22;29197;44.788;10.366;2022-08-02T18:15:20;32.00;89.40
43607;DHT22;29197;44.788;10.366;2022-08-02T18:18:10;31.90;89.20
43607;DHT22;29197;44.788;10.366;2022-08-02T18:21:01;31.90;89.20
43607;DHT22;29197;44.788;10.366;2022-08-02T18:24:03;31.80;89.40
43607;DHT22;29197;44.788;10.366;2022-08-02T18:26:52;31.80;89.40
43607;DHT22;29197;44.788;10.366;2022-08-02T18:29:43;31.70;89.40
43607;DHT22;29197;44.788;10.366;2022-08-02T18:32:35;31.80;89.70
43607;DHT22;29197;44.788;10.366;2022-08-02T18:35:44;31.70;89.60
43607;DHT22;29197;44.788;10.366;2022-08-02T18:38:34;31.70;89.40
43607;DHT22;29197;44.788;10.366;2022-08-02T18:41:24;31.60;89.40
43607;DHT22;29197;44.788;10.366;2022-08-02T18:44:14;31.60;89.50
43607;DHT22;29197;44.788;10.366;2022-08-02T18:47:05;31.60;89.80
43607;DHT22;29197;44.788;10.366;2022-08-02T18:49:57;31.50;90.10
43607;DHT22;29197;44.788;10.366;2022-08-02T18:52:46;31.50;90.10
43607;DHT22;29197;44.788;10.366;2022-08-02T18:55:35;31.50;90.40
43607;DHT22;29197;44.788;10.366;2022-08-02T18:58:45;31.40;90.40
43607;DHT22;29197;44.788;10.366;2022-08-02T19:01:34;31.40;90.50